sensor_id;sensor_type;location;lat;lon;timestamp;P1;durP1;ratioP1;P2;durP2;ratioP2
23300;SDS011;11819;51.394;12.340;2023-03-23T00:01:03;7.57;;;3.63;;
23300;SDS011;11819;51.394;12.340;2023-03-23T00:03:30;5.63;;;3.55;;
23300;SDS011;11819;51.394;12.340;2023-03-23T00:05:57;4.78;;;3.20;;
23300;SDS011;11819;51.394;12.340;2023-03-23T00:08:29;7.65;;;3.97;;
23300;SDS011;11819;51.394;12.340;2023-03-23T00:10:56;5.93;;;3.85;;
23300;SDS011;11819;51.394;12.340;2023-03-23T00:13:23;6.05;;;3.15;;
23300;SDS011;11819;51.394;12.340;2023-03-23T00:15:49;4.50;;;3.13;;
23300;SDS011;11819;51.394;12.340;2023-03-23T00:18:17;4.72;;;2.83;;
23300;SDS011;11819;51.394;12.340;2023-03-23T00:20:47;6.35;;;3.63;;
23300;SDS011;11819;51.394;12.340;2023-03-23T00:23:14;5.68;;;3.10;;
23300;SDS011;11819;51.394;12.340;2023-03-23T00:25:47;6.45;;;3.33;;
23300;SDS011;11819;51.394;12.340;2023-03-23T00:28:15;5.05;;;3.13;;
23300;SDS011;11819;51.394;12.340;2023-03-23T00:30:43;7.45;;;3.70;;
23300;SDS011;11819;51.394;12.340;2023-03-23T00:33:10;7.20;;;3.28;;
23300;SDS011;11819;51.394;12.340;2023-03-23T00:35:39;4.85;;;3.03;;
23300;SDS011;11819;51.394;12.340;2023-03-23T00:38:05;4.53;;;2.80;;
23300;SDS011;11819;51.394;12.340;2023-03-23T00:40:31;5.53;;;3.40;;
23300;SDS011;11819;51.394;12.340;2023-03-23T00:43:00;7.90;;;3.45;;
23300;SDS011;11819;51.394;12.340;2023-03-23T00:45:28;5.05;;;3.22;;
23300;SDS011;11819;51.394;12.340;2023-03-23T00:47:54;5.20;;;3.20;;
23300;SDS011;11819;51.394;12.340;2023-03-23T00:50:19;6.05;;;3.25;;
23300;SDS011;11819;51.394;12.340;2023-03-23T00:52:45;4.53;;;3.15;;
23300;SDS011;11819;51.394;12.340;2023-03-23T00:55:11;5.97;;;4.00;;
23300;SDS011;11819;51.394;12.340;2023-03-23T00:57:36;4.68;;;3.00;;
23300;SDS011;11819;51.394;12.340;2023-03-23T01:00:02;4.75;;;2.90;;
23300;SDS011;11819;51.394;12.340;2023-03-23T01:02:34;6.00;;;2.88;;
23300;SDS011;11819;51.394;12.340;2023-03-23T01:05:03;5.78;;;2.92;;
23300;SDS011;11819;51.394;12.340;2023-03-23T01:07:28;5.25;;;2.75;;
23300;SDS011;11819;51.394;12.340;2023-03-23T01:09:56;7.35;;;3.20;;
23300;SDS011;11819;51.394;12.340;2023-03-23T01:12:22;4.35;;;2.58;;
23300;SDS011;11819;51.394;12.340;2023-03-23T01:14:50;6.55;;;3.10;;
23300;SDS011;11819;51.394;12.340;2023-03-23T01:17:16;5.20;;;2.70;;
23300;SDS011;11819;51.394;12.340;2023-03-23T01:19:41;4.70;;;2.80;;
23300;SDS011;11819;51.394;12.340;2023-03-23T01:22:07;4.35;;;2.70;;
23300;SDS011;11819;51.394;12.340;2023-03-23T01:24:33;5.38;;;2.55;;
23300;SDS011;11819;51.394;12.340;2023-03-23T01:26:58;5.60;;;2.97;;
23300;SDS011;11819;51.394;12.340;2023-03-23T01:29:31;4.47;;;2.80;;
23300;SDS011;11819;51.394;12.340;2023-03-23T01:32:01;6.35;;;2.90;;
23300;SDS011;11819;51.394;12.340;2023-03-23T01:34:27;6.43;;;2.90;;
23300;SDS011;11819;51.394;12.340;2023-03-23T01:36:52;7.55;;;3.05;;
23300;SDS011;11819;51.394;12.340;2023-03-23T01:39:18;3.75;;;2.50;;
23300;SDS011;11819;51.394;12.340;2023-03-23T01:41:44;4.55;;;2.58;;
23300;SDS011;11819;51.394;12.340;2023-03-23T01:47:05;4.30;;;2.60;;
23300;SDS011;11819;51.394;12.340;2023-03-23T01:49:35;3.65;;;2.70;;
23300;SDS011;11819;51.394;12.340;2023-03-23T01:52:08;4.90;;;2.45;;
23300;SDS011;11819;51.394;12.340;2023-03-23T01:54:43;4.15;;;2.60;;
23300;SDS011;11819;51.394;12.340;2023-03-23T01:57:12;3.90;;;2.60;;
23300;SDS011;11819;51.394;12.340;2023-03-23T01:59:41;4.45;;;2.45;;
23300;SDS011;11819;51.394;12.340;2023-03-23T02:02:18;4.13;;;2.60;;
23300;SDS011;11819;51.394;12.340;2023-03-23T02:04:47;4.10;;;2.47;;
23300;SDS011;11819;51.394;12.340;2023-03-23T02:07:14;4.07;;;2.55;;
23300;SDS011;11819;51.394;12.340;2023-03-23T02:09:42;4.10;;;2.60;;
23300;SDS011;11819;51.394;12.340;2023-03-23T02:12:08;4.47;;;2.50;;
23300;SDS011;11819;51.394;12.340;2023-03-23T02:14:36;4.55;;;2.50;;
23300;SDS011;11819;51.394;12.340;2023-03-23T02:17:04;4.45;;;2.78;;
23300;SDS011;11819;51.394;12.340;2023-03-23T02:19:52;3.78;;;2.50;;
23300;SDS011;11819;51.394;12.340;2023-03-23T02:23:01;6.97;;;2.83;;
23300;SDS011;11819;51.394;12.340;2023-03-23T02:31:17;5.25;;;2.63;;
23300;SDS011;11819;51.394;12.340;2023-03-23T02:34:16;5.55;;;2.58;;
23300;SDS011;11819;51.394;12.340;2023-03-23T02:37:34;5.35;;;2.30;;
23300;SDS011;11819;51.394;12.340;2023-03-23T02:39:47;5.13;;;2.58;;
23300;SDS011;11819;51.394;12.340;2023-03-23T02:42:20;5.65;;;2.92;;
23300;SDS011;11819;51.394;12.340;2023-03-23T02:44:51;5.20;;;3.28;;
23300;SDS011;11819;51.394;12.340;2023-03-23T02:47:21;4.88;;;2.50;;
23300;SDS011;11819;51.394;12.340;2023-03-23T02:49:50;5.25;;;2.58;;
23300;SDS011;11819;51.394;12.340;2023-03-23T02:52:19;4.13;;;2.30;;
23300;SDS011;11819;51.394;12.340;2023-03-23T02:54:49;4.97;;;2.50;;
23300;SDS011;11819;51.394;12.340;2023-03-23T02:57:18;4.85;;;2.08;;
23300;SDS011;11819;51.394;12.340;2023-03-23T02:59:45;4.80;;;2.22;;
23300;SDS011;11819;51.394;12.340;2023-03-23T03:02:18;6.40;;;2.45;;
23300;SDS011;11819;51.394;12.340;2023-03-23T03:05:30;4.30;;;2.40;;
23300;SDS011;11819;51.394;12.340;2023-03-23T03:12:55;5.65;;;2.50;;
23300;SDS011;11819;51.394;12.340;2023-03-23T03:20:35;4.00;;;2.10;;
23300;SDS011;11819;51.394;12.340;2023-03-23T03:23:06;4.18;;;2.13;;
23300;SDS011;11819;51.394;12.340;2023-03-23T03:25:35;4.65;;;1.92;;
23300;SDS011;11819;51.394;12.340;2023-03-23T03:28:02;4.45;;;2.20;;
23300;SDS011;11819;51.394;12.340;2023-03-23T03:30:38;4.22;;;2.25;;
23300;SDS011;11819;51.394;12.340;2023-03-23T03:33:09;3.53;;;2.40;;
23300;SDS011;11819;51.394;12.340;2023-03-23T03:35:37;5.22;;;2.22;;
23300;SDS011;11819;51.394;12.340;2023-03-23T03:38:09;3.80;;;2.20;;
23300;SDS011;11819;51.394;12.340;2023-03-23T03:40:36;4.15;;;2.22;;
23300;SDS011;11819;51.394;12.340;2023-03-23T03:43:02;3.10;;;2.20;;
23300;SDS011;11819;51.394;12.340;2023-03-23T03:45:29;4.82;;;2.30;;
23300;SDS011;11819;51.394;12.340;2023-03-23T03:47:55;3.70;;;2.33;;
23300;SDS011;11819;51.394;12.340;2023-03-23T03:50:21;5.32;;;2.65;;
23300;SDS011;11819;51.394;12.340;2023-03-23T03:52:47;5.45;;;2.47;;
23300;SDS011;11819;51.394;12.340;2023-03-23T03:55:12;3.97;;;2.17;;
23300;SDS011;11819;51.394;12.340;2023-03-23T03:57:42;4.70;;;2.65;;
23300;SDS011;11819;51.394;12.340;2023-03-23T04:00:31;5.13;;;2.35;;
23300;SDS011;11819;51.394;12.340;2023-03-23T04:02:57;5.38;;;2.83;;
23300;SDS011;11819;51.394;12.340;2023-03-23T04:05:54;5.25;;;2.60;;
23300;SDS011;11819;51.394;12.340;2023-03-23T04:08:21;5.68;;;3.05;;
23300;SDS011;11819;51.394;12.340;2023-03-23T04:10:47;4.70;;;2.60;;
23300;SDS011;11819;51.394;12.340;2023-03-23T04:13:18;5.18;;;2.95;;
23300;SDS011;11819;51.394;12.340;2023-03-23T04:16:02;4.78;;;2.50;;
23300;SDS011;11819;51.394;12.340;2023-03-23T04:18:31;4.30;;;2.67;;
23300;SDS011;11819;51.394;12.340;2023-03-23T04:20:57;5.50;;;2.78;;
23300;SDS011;11819;51.394;12.340;2023-03-23T04:23:25;5.43;;;2.67;;
23300;SDS011;11819;51.394;12.340;2023-03-23T04:25:52;4.55;;;2.72;;
23300;SDS011;11819;51.394;12.340;2023-03-23T04:28:24;6.70;;;2.78;;
23300;SDS011;11819;51.394;12.340;2023-03-23T04:31:15;4.10;;;2.63;;
23300;SDS011;11819;51.394;12.340;2023-03-23T04:33:45;5.43;;;2.83;;
23300;SDS011;11819;51.394;12.340;2023-03-23T04:36:11;4.75;;;3.05;;
23300;SDS011;11819;51.394;12.340;2023-03-23T04:38:46;5.18;;;3.03;;
23300;SDS011;11819;51.394;12.340;2023-03-23T04:41:19;5.22;;;2.67;;
23300;SDS011;11819;51.394;12.340;2023-03-23T04:43:52;5.57;;;2.70;;
23300;SDS011;11819;51.394;12.340;2023-03-23T04:46:25;4.03;;;2.92;;
23300;SDS011;11819;51.394;12.340;2023-03-23T04:48:54;5.53;;;3.10;;
23300;SDS011;11819;51.394;12.340;2023-03-23T04:51:24;4.53;;;2.67;;
23300;SDS011;11819;51.394;12.340;2023-03-23T04:53:53;5.53;;;3.15;;
23300;SDS011;11819;51.394;12.340;2023-03-23T04:56:19;6.03;;;2.67;;
23300;SDS011;11819;51.394;12.340;2023-03-23T04:58:45;6.05;;;3.22;;
23300;SDS011;11819;51.394;12.340;2023-03-23T05:01:30;8.07;;;3.25;;
23300;SDS011;11819;51.394;12.340;2023-03-23T05:04:16;4.32;;;2.78;;
23300;SDS011;11819;51.394;12.340;2023-03-23T05:06:49;5.82;;;3.15;;
23300;SDS011;11819;51.394;12.340;2023-03-23T05:09:21;5.65;;;3.13;;
23300;SDS011;11819;51.394;12.340;2023-03-23T05:11:48;3.95;;;2.55;;
23300;SDS011;11819;51.394;12.340;2023-03-23T05:14:14;5.50;;;3.08;;
23300;SDS011;11819;51.394;12.340;2023-03-23T05:16:42;5.30;;;2.80;;
23300;SDS011;11819;51.394;12.340;2023-03-23T05:19:14;4.15;;;2.50;;
23300;SDS011;11819;51.394;12.340;2023-03-23T05:21:40;4.15;;;2.65;;
23300;SDS011;11819;51.394;12.340;2023-03-23T05:24:07;5.30;;;2.85;;
23300;SDS011;11819;51.394;12.340;2023-03-23T05:26:33;4.65;;;3.10;;
23300;SDS011;11819;51.394;12.340;2023-03-23T05:29:05;4.60;;;2.80;;
23300;SDS011;11819;51.394;12.340;2023-03-23T05:31:43;5.45;;;2.85;;
23300;SDS011;11819;51.394;12.340;2023-03-23T05:34:09;4.88;;;2.50;;
23300;SDS011;11819;51.394;12.340;2023-03-23T05:36:45;5.68;;;3.22;;
23300;SDS011;11819;51.394;12.340;2023-03-23T05:39:26;4.47;;;2.58;;
23300;SDS011;11819;51.394;12.340;2023-03-23T05:42:20;5.72;;;2.80;;
23300;SDS011;11819;51.394;12.340;2023-03-23T05:44:57;6.70;;;2.80;;
23300;SDS011;11819;51.394;12.340;2023-03-23T05:47:24;5.20;;;2.83;;
23300;SDS011;11819;51.394;12.340;2023-03-23T05:49:55;5.45;;;2.60;;
23300;SDS011;11819;51.394;12.340;2023-03-23T05:52:22;5.40;;;2.92;;
23300;SDS011;11819;51.394;12.340;2023-03-23T05:54:50;7.75;;;3.33;;
23300;SDS011;11819;51.394;12.340;2023-03-23T05:57:18;5.90;;;2.60;;
23300;SDS011;11819;51.394;12.340;2023-03-23T05:59:51;4.82;;;2.90;;
23300;SDS011;11819;51.394;12.340;2023-03-23T06:02:21;6.10;;;2.70;;
23300;SDS011;11819;51.394;12.340;2023-03-23T06:04:48;7.47;;;3.08;;
23300;SDS011;11819;51.394;12.340;2023-03-23T06:07:21;7.55;;;3.25;;
23300;SDS011;11819;51.394;12.340;2023-03-23T06:09:58;5.38;;;2.75;;
23300;SDS011;11819;51.394;12.340;2023-03-23T06:12:23;7.07;;;3.00;;
23300;SDS011;11819;51.394;12.340;2023-03-23T06:15:05;6.50;;;2.80;;
23300;SDS011;11819;51.394;12.340;2023-03-23T06:17:50;4.60;;;3.22;;
23300;SDS011;11819;51.394;12.340;2023-03-23T06:20:21;5.60;;;2.97;;
23300;SDS011;11819;51.394;12.340;2023-03-23T06:22:50;7.25;;;3.20;;
23300;SDS011;11819;51.394;12.340;2023-03-23T06:25:25;4.55;;;2.97;;
23300;SDS011;11819;51.394;12.340;2023-03-23T06:27:51;5.68;;;3.20;;
23300;SDS011;11819;51.394;12.340;2023-03-23T06:30:17;6.47;;;3.42;;
23300;SDS011;11819;51.394;12.340;2023-03-23T06:32:43;7.85;;;3.40;;
23300;SDS011;11819;51.394;12.340;2023-03-23T06:35:12;5.38;;;3.40;;
23300;SDS011;11819;51.394;12.340;2023-03-23T06:38:00;9.85;;;3.83;;
23300;SDS011;11819;51.394;12.340;2023-03-23T06:40:34;8.23;;;3.17;;
23300;SDS011;11819;51.394;12.340;2023-03-23T06:43:03;4.97;;;3.20;;
23300;SDS011;11819;51.394;12.340;2023-03-23T06:45:58;6.28;;;3.65;;
23300;SDS011;11819;51.394;12.340;2023-03-23T06:48:39;6.22;;;3.70;;
23300;SDS011;11819;51.394;12.340;2023-03-23T06:51:06;5.10;;;3.70;;
23300;SDS011;11819;51.394;12.340;2023-03-23T06:53:34;6.28;;;3.20;;
23300;SDS011;11819;51.394;12.340;2023-03-23T06:56:00;8.32;;;3.67;;
23300;SDS011;11819;51.394;12.340;2023-03-23T06:58:27;5.72;;;3.50;;
23300;SDS011;11819;51.394;12.340;2023-03-23T07:00:56;5.10;;;3.45;;
23300;SDS011;11819;51.394;12.340;2023-03-23T07:03:28;5.45;;;3.58;;
23300;SDS011;11819;51.394;12.340;2023-03-23T07:05:54;5.50;;;3.60;;
23300;SDS011;11819;51.394;12.340;2023-03-23T07:08:24;4.85;;;3.38;;
23300;SDS011;11819;51.394;12.340;2023-03-23T07:10:54;8.05;;;3.65;;
23300;SDS011;11819;51.394;12.340;2023-03-23T07:13:26;5.20;;;3.47;;
23300;SDS011;11819;51.394;12.340;2023-03-23T07:15:58;5.45;;;3.55;;
23300;SDS011;11819;51.394;12.340;2023-03-23T07:18:24;6.38;;;3.60;;
23300;SDS011;11819;51.394;12.340;2023-03-23T07:20:52;7.38;;;3.28;;
23300;SDS011;11819;51.394;12.340;2023-03-23T07:23:21;5.32;;;2.90;;
23300;SDS011;11819;51.394;12.340;2023-03-23T07:25:55;4.68;;;2.67;;
23300;SDS011;11819;51.394;12.340;2023-03-23T07:28:26;3.38;;;1.98;;
23300;SDS011;11819;51.394;12.340;2023-03-23T07:30:55;3.92;;;2.20;;
23300;SDS011;11819;51.394;12.340;2023-03-23T07:33:21;2.80;;;2.10;;
23300;SDS011;11819;51.394;12.340;2023-03-23T07:35:48;4.97;;;2.20;;
23300;SDS011;11819;51.394;12.340;2023-03-23T07:38:15;4.47;;;2.53;;
23300;SDS011;11819;51.394;12.340;2023-03-23T07:40:46;4.15;;;2.33;;
23300;SDS011;11819;51.394;12.340;2023-03-23T07:43:15;3.40;;;2.22;;
23300;SDS011;11819;51.394;12.340;2023-03-23T07:45:59;5.50;;;2.17;;
23300;SDS011;11819;51.394;12.340;2023-03-23T07:48:37;3.17;;;1.90;;
23300;SDS011;11819;51.394;12.340;2023-03-23T07:51:04;2.63;;;2.00;;
23300;SDS011;11819;51.394;12.340;2023-03-23T07:53:31;3.38;;;2.05;;
23300;SDS011;11819;51.394;12.340;2023-03-23T07:56:11;4.43;;;2.65;;
23300;SDS011;11819;51.394;12.340;2023-03-23T07:58:51;3.50;;;2.17;;
23300;SDS011;11819;51.394;12.340;2023-03-23T08:01:18;3.72;;;2.95;;
23300;SDS011;11819;51.394;12.340;2023-03-23T08:03:59;4.95;;;2.60;;
23300;SDS011;11819;51.394;12.340;2023-03-23T08:06:34;4.43;;;2.40;;
23300;SDS011;11819;51.394;12.340;2023-03-23T08:09:33;4.10;;;2.40;;
23300;SDS011;11819;51.394;12.340;2023-03-23T08:12:16;4.40;;;2.42;;
23300;SDS011;11819;51.394;12.340;2023-03-23T08:15:11;4.82;;;2.97;;
23300;SDS011;11819;51.394;12.340;2023-03-23T08:17:50;3.90;;;2.38;;
23300;SDS011;11819;51.394;12.340;2023-03-23T08:20:34;3.50;;;2.20;;
23300;SDS011;11819;51.394;12.340;2023-03-23T08:23:03;4.07;;;2.60;;
23300;SDS011;11819;51.394;12.340;2023-03-23T08:25:34;4.13;;;2.65;;
23300;SDS011;11819;51.394;12.340;2023-03-23T08:28:18;5.80;;;2.70;;
23300;SDS011;11819;51.394;12.340;2023-03-23T08:31:11;4.00;;;2.38;;
23300;SDS011;11819;51.394;12.340;2023-03-23T08:33:56;4.60;;;2.40;;
23300;SDS011;11819;51.394;12.340;2023-03-23T08:36:48;4.55;;;2.80;;
23300;SDS011;11819;51.394;12.340;2023-03-23T08:39:33;5.93;;;3.00;;
23300;SDS011;11819;51.394;12.340;2023-03-23T08:42:15;4.60;;;2.78;;
23300;SDS011;11819;51.394;12.340;2023-03-23T08:44:56;5.63;;;3.33;;
23300;SDS011;11819;51.394;12.340;2023-03-23T08:47:45;6.75;;;3.13;;
23300;SDS011;11819;51.394;12.340;2023-03-23T08:50:30;6.63;;;3.45;;
23300;SDS011;11819;51.394;12.340;2023-03-23T08:53:21;5.15;;;2.90;;
23300;SDS011;11819;51.394;12.340;2023-03-23T08:55:50;5.60;;;2.85;;
23300;SDS011;11819;51.394;12.340;2023-03-23T08:58:42;6.78;;;3.17;;
23300;SDS011;11819;51.394;12.340;2023-03-23T09:01:15;6.22;;;3.17;;
23300;SDS011;11819;51.394;12.340;2023-03-23T09:04:20;4.40;;;2.75;;
23300;SDS011;11819;51.394;12.340;2023-03-23T09:06:48;8.40;;;2.70;;
23300;SDS011;11819;51.394;12.340;2023-03-23T09:09:14;5.35;;;2.75;;
23300;SDS011;11819;51.394;12.340;2023-03-23T09:11:40;5.25;;;2.92;;
23300;SDS011;11819;51.394;12.340;2023-03-23T09:14:06;5.72;;;3.30;;
23300;SDS011;11819;51.394;12.340;2023-03-23T09:16:33;4.93;;;2.92;;
23300;SDS011;11819;51.394;12.340;2023-03-23T09:19:00;5.60;;;3.30;;
23300;SDS011;11819;51.394;12.340;2023-03-23T09:21:26;5.55;;;2.97;;
23300;SDS011;11819;51.394;12.340;2023-03-23T09:23:53;4.45;;;2.65;;
23300;SDS011;11819;51.394;12.340;2023-03-23T09:26:21;5.15;;;2.83;;
23300;SDS011;11819;51.394;12.340;2023-03-23T09:28:47;4.03;;;2.83;;
23300;SDS011;11819;51.394;12.340;2023-03-23T09:31:12;4.40;;;2.80;;
23300;SDS011;11819;51.394;12.340;2023-03-23T09:33:38;6.50;;;2.95;;
23300;SDS011;11819;51.394;12.340;2023-03-23T09:36:04;7.15;;;3.00;;
23300;SDS011;11819;51.394;12.340;2023-03-23T09:38:33;5.30;;;3.10;;
23300;SDS011;11819;51.394;12.340;2023-03-23T09:43:58;5.85;;;2.70;;
23300;SDS011;11819;51.394;12.340;2023-03-23T09:46:46;5.15;;;3.00;;
23300;SDS011;11819;51.394;12.340;2023-03-23T09:49:21;5.22;;;2.63;;
23300;SDS011;11819;51.394;12.340;2023-03-23T09:52:05;4.72;;;2.70;;
23300;SDS011;11819;51.394;12.340;2023-03-23T09:54:39;4.63;;;2.90;;
23300;SDS011;11819;51.394;12.340;2023-03-23T09:57:12;5.25;;;2.45;;
23300;SDS011;11819;51.394;12.340;2023-03-23T10:02:15;3.75;;;2.40;;
23300;SDS011;11819;51.394;12.340;2023-03-23T10:04:53;3.33;;;2.50;;
23300;SDS011;11819;51.394;12.340;2023-03-23T10:07:21;4.15;;;2.28;;
23300;SDS011;11819;51.394;12.340;2023-03-23T10:10:00;3.15;;;2.38;;
23300;SDS011;11819;51.394;12.340;2023-03-23T10:15:09;3.60;;;1.98;;
23300;SDS011;11819;51.394;12.340;2023-03-23T10:20:25;2.97;;;1.50;;
23300;SDS011;11819;51.394;12.340;2023-03-23T10:28:44;4.18;;;2.42;;
23300;SDS011;11819;51.394;12.340;2023-03-23T10:31:18;5.13;;;2.40;;
23300;SDS011;11819;51.394;12.340;2023-03-23T10:33:49;3.10;;;1.90;;
23300;SDS011;11819;51.394;12.340;2023-03-23T10:39:22;4.18;;;2.67;;
23300;SDS011;11819;51.394;12.340;2023-03-23T10:41:51;4.82;;;2.15;;
23300;SDS011;11819;51.394;12.340;2023-03-23T10:44:19;2.85;;;1.70;;
23300;SDS011;11819;51.394;12.340;2023-03-23T10:46:49;4.25;;;2.72;;
23300;SDS011;11819;51.394;12.340;2023-03-23T10:49:23;6.28;;;3.03;;
23300;SDS011;11819;51.394;12.340;2023-03-23T10:51:59;4.25;;;1.75;;
23300;SDS011;11819;51.394;12.340;2023-03-23T10:54:45;2.45;;;1.65;;
23300;SDS011;11819;51.394;12.340;2023-03-23T10:57:20;2.80;;;1.90;;
23300;SDS011;11819;51.394;12.340;2023-03-23T11:05:27;1.95;;;1.42;;
23300;SDS011;11819;51.394;12.340;2023-03-23T11:08:11;4.63;;;2.20;;
23300;SDS011;11819;51.394;12.340;2023-03-23T11:10:40;2.80;;;1.70;;
23300;SDS011;11819;51.394;12.340;2023-03-23T11:13:18;2.22;;;1.40;;
23300;SDS011;11819;51.394;12.340;2023-03-23T11:15:46;2.00;;;1.20;;
23300;SDS011;11819;51.394;12.340;2023-03-23T11:18:18;1.65;;;1.38;;
23300;SDS011;11819;51.394;12.340;2023-03-23T11:20:47;2.97;;;1.90;;
23300;SDS011;11819;51.394;12.340;2023-03-23T11:23:19;2.88;;;1.73;;
23300;SDS011;11819;51.394;12.340;2023-03-23T11:28:42;2.45;;;1.40;;
23300;SDS011;11819;51.394;12.340;2023-03-23T11:31:11;2.25;;;1.48;;
23300;SDS011;11819;51.394;12.340;2023-03-23T11:33:38;3.03;;;1.60;;
23300;SDS011;11819;51.394;12.340;2023-03-23T11:36:11;3.08;;;1.70;;
23300;SDS011;11819;51.394;12.340;2023-03-23T11:38:37;1.73;;;1.40;;
23300;SDS011;11819;51.394;12.340;2023-03-23T11:41:08;3.47;;;1.95;;
23300;SDS011;11819;51.394;12.340;2023-03-23T11:43:39;4.10;;;1.90;;
23300;SDS011;11819;51.394;12.340;2023-03-23T11:46:10;4.15;;;2.13;;
23300;SDS011;11819;51.394;12.340;2023-03-23T11:49:04;2.97;;;1.75;;
23300;SDS011;11819;51.394;12.340;2023-03-23T11:51:48;3.38;;;1.98;;
23300;SDS011;11819;51.394;12.340;2023-03-23T11:57:06;2.85;;;1.55;;
23300;SDS011;11819;51.394;12.340;2023-03-23T11:59:37;2.63;;;1.25;;
23300;SDS011;11819;51.394;12.340;2023-03-23T12:02:12;3.72;;;1.80;;
23300;SDS011;11819;51.394;12.340;2023-03-23T12:13:00;2.72;;;1.55;;
23300;SDS011;11819;51.394;12.340;2023-03-23T12:15:54;4.00;;;1.90;;
23300;SDS011;11819;51.394;12.340;2023-03-23T12:21:20;3.40;;;1.95;;
23300;SDS011;11819;51.394;12.340;2023-03-23T12:24:20;4.13;;;1.98;;
23300;SDS011;11819;51.394;12.340;2023-03-23T12:27:09;3.33;;;2.20;;
23300;SDS011;11819;51.394;12.340;2023-03-23T12:35:20;4.38;;;2.15;;
23300;SDS011;11819;51.394;12.340;2023-03-23T12:40:45;2.70;;;1.45;;
23300;SDS011;11819;51.394;12.340;2023-03-23T12:48:57;2.55;;;1.85;;
23300;SDS011;11819;51.394;12.340;2023-03-23T12:51:37;3.10;;;1.40;;
23300;SDS011;11819;51.394;12.340;2023-03-23T12:54:39;2.30;;;1.58;;
23300;SDS011;11819;51.394;12.340;2023-03-23T12:57:18;2.35;;;1.63;;
23300;SDS011;11819;51.394;12.340;2023-03-23T13:00:13;3.50;;;1.73;;
23300;SDS011;11819;51.394;12.340;2023-03-23T13:02:44;3.33;;;1.80;;
23300;SDS011;11819;51.394;12.340;2023-03-23T13:10:45;3.03;;;1.50;;
23300;SDS011;11819;51.394;12.340;2023-03-23T13:13:19;2.08;;;1.60;;
23300;SDS011;11819;51.394;12.340;2023-03-23T13:18:38;1.88;;;1.20;;
23300;SDS011;11819;51.394;12.340;2023-03-23T13:21:18;3.45;;;2.08;;
23300;SDS011;11819;51.394;12.340;2023-03-23T13:23:54;3.85;;;1.95;;
23300;SDS011;11819;51.394;12.340;2023-03-23T13:26:24;1.90;;;1.48;;
23300;SDS011;11819;51.394;12.340;2023-03-23T13:31:22;1.30;;;1.20;;
23300;SDS011;11819;51.394;12.340;2023-03-23T13:36:54;1.90;;;1.30;;
23300;SDS011;11819;51.394;12.340;2023-03-23T13:39:23;2.03;;;1.35;;
23300;SDS011;11819;51.394;12.340;2023-03-23T13:44:38;3.20;;;1.50;;
23300;SDS011;11819;51.394;12.340;2023-03-23T13:47:28;2.92;;;1.38;;
23300;SDS011;11819;51.394;12.340;2023-03-23T13:50:09;4.35;;;1.70;;
23300;SDS011;11819;51.394;12.340;2023-03-23T13:55:30;5.57;;;3.20;;
23300;SDS011;11819;51.394;12.340;2023-03-23T14:03:09;2.67;;;1.92;;
23300;SDS011;11819;51.394;12.340;2023-03-23T14:05:39;4.88;;;2.58;;
23300;SDS011;11819;51.394;12.340;2023-03-23T14:10:54;3.15;;;1.65;;
23300;SDS011;11819;51.394;12.340;2023-03-23T14:13:29;2.50;;;1.80;;
23300;SDS011;11819;51.394;12.340;2023-03-23T14:16:20;3.60;;;1.95;;
23300;SDS011;11819;51.394;12.340;2023-03-23T14:18:56;2.15;;;1.50;;
23300;SDS011;11819;51.394;12.340;2023-03-23T14:24:09;3.50;;;1.90;;
23300;SDS011;11819;51.394;12.340;2023-03-23T14:26:41;4.03;;;1.90;;
23300;SDS011;11819;51.394;12.340;2023-03-23T14:29:13;3.67;;;1.80;;
23300;SDS011;11819;51.394;12.340;2023-03-23T14:31:39;3.75;;;1.70;;
23300;SDS011;11819;51.394;12.340;2023-03-23T14:34:11;2.67;;;1.60;;
23300;SDS011;11819;51.394;12.340;2023-03-23T14:36:39;3.70;;;1.60;;
23300;SDS011;11819;51.394;12.340;2023-03-23T14:39:07;3.42;;;1.75;;
23300;SDS011;11819;51.394;12.340;2023-03-23T14:41:37;3.58;;;1.80;;
23300;SDS011;11819;51.394;12.340;2023-03-23T14:44:05;2.42;;;1.70;;
23300;SDS011;11819;51.394;12.340;2023-03-23T14:46:34;3.47;;;1.92;;
23300;SDS011;11819;51.394;12.340;2023-03-23T14:49:03;3.13;;;2.03;;
23300;SDS011;11819;51.394;12.340;2023-03-23T14:51:31;3.67;;;2.20;;
23300;SDS011;11819;51.394;12.340;2023-03-23T14:53:58;4.45;;;2.50;;
23300;SDS011;11819;51.394;12.340;2023-03-23T14:56:31;3.25;;;2.20;;
23300;SDS011;11819;51.394;12.340;2023-03-23T14:59:02;4.07;;;2.30;;
23300;SDS011;11819;51.394;12.340;2023-03-23T15:01:31;4.72;;;2.33;;
23300;SDS011;11819;51.394;12.340;2023-03-23T15:04:01;8.10;;;3.42;;
23300;SDS011;11819;51.394;12.340;2023-03-23T15:06:45;7.25;;;4.57;;
23300;SDS011;11819;51.394;12.340;2023-03-23T15:09:20;50.97;;;8.88;;
23300;SDS011;11819;51.394;12.340;2023-03-23T15:11:52;7.47;;;3.38;;
23300;SDS011;11819;51.394;12.340;2023-03-23T15:14:35;6.90;;;2.53;;
23300;SDS011;11819;51.394;12.340;2023-03-23T15:17:09;5.05;;;2.30;;
23300;SDS011;11819;51.394;12.340;2023-03-23T15:19:47;7.03;;;2.85;;
23300;SDS011;11819;51.394;12.340;2023-03-23T15:22:16;6.15;;;3.40;;
23300;SDS011;11819;51.394;12.340;2023-03-23T15:24:43;2.40;;;1.80;;
23300;SDS011;11819;51.394;12.340;2023-03-23T15:27:17;4.55;;;2.20;;
23300;SDS011;11819;51.394;12.340;2023-03-23T15:29:59;3.90;;;2.17;;
23300;SDS011;11819;51.394;12.340;2023-03-23T15:32:41;6.63;;;3.03;;
23300;SDS011;11819;51.394;12.340;2023-03-23T15:35:11;5.95;;;2.20;;
23300;SDS011;11819;51.394;12.340;2023-03-23T15:37:43;5.57;;;3.28;;
23300;SDS011;11819;51.394;12.340;2023-03-23T15:40:15;3.13;;;2.10;;
23300;SDS011;11819;51.394;12.340;2023-03-23T15:42:46;2.05;;;1.63;;
23300;SDS011;11819;51.394;12.340;2023-03-23T15:52:43;3.40;;;1.80;;
23300;SDS011;11819;51.394;12.340;2023-03-23T15:55:18;4.28;;;2.03;;
23300;SDS011;11819;51.394;12.340;2023-03-23T15:57:46;2.72;;;1.60;;
23300;SDS011;11819;51.394;12.340;2023-03-23T16:00:14;3.50;;;1.83;;
23300;SDS011;11819;51.394;12.340;2023-03-23T16:02:40;3.80;;;2.60;;
23300;SDS011;11819;51.394;12.340;2023-03-23T16:05:09;2.80;;;1.65;;
23300;SDS011;11819;51.394;12.340;2023-03-23T16:07:38;2.25;;;1.55;;
23300;SDS011;11819;51.394;12.340;2023-03-23T16:10:04;3.47;;;1.92;;
23300;SDS011;11819;51.394;12.340;2023-03-23T16:12:31;3.55;;;1.80;;
23300;SDS011;11819;51.394;12.340;2023-03-23T16:14:57;2.17;;;1.58;;
23300;SDS011;11819;51.394;12.340;2023-03-23T16:17:23;3.05;;;1.95;;
23300;SDS011;11819;51.394;12.340;2023-03-23T16:19:50;4.20;;;1.88;;
23300;SDS011;11819;51.394;12.340;2023-03-23T16:22:15;4.32;;;2.10;;
23300;SDS011;11819;51.394;12.340;2023-03-23T16:24:41;3.22;;;1.90;;
23300;SDS011;11819;51.394;12.340;2023-03-23T16:27:10;4.00;;;1.60;;
23300;SDS011;11819;51.394;12.340;2023-03-23T16:29:36;3.60;;;1.80;;
23300;SDS011;11819;51.394;12.340;2023-03-23T16:32:01;4.65;;;2.10;;
23300;SDS011;11819;51.394;12.340;2023-03-23T16:34:27;2.28;;;1.65;;
23300;SDS011;11819;51.394;12.340;2023-03-23T16:36:57;2.65;;;1.85;;
23300;SDS011;11819;51.394;12.340;2023-03-23T16:39:22;3.75;;;2.10;;
23300;SDS011;11819;51.394;12.340;2023-03-23T16:41:48;4.72;;;2.10;;
23300;SDS011;11819;51.394;12.340;2023-03-23T16:44:13;3.10;;;1.60;;
23300;SDS011;11819;51.394;12.340;2023-03-23T16:46:40;3.45;;;2.05;;
23300;SDS011;11819;51.394;12.340;2023-03-23T16:49:05;2.92;;;1.95;;
23300;SDS011;11819;51.394;12.340;2023-03-23T16:51:31;2.50;;;1.90;;
23300;SDS011;11819;51.394;12.340;2023-03-23T16:53:56;1.50;;;1.40;;
23300;SDS011;11819;51.394;12.340;2023-03-23T16:56:22;5.03;;;1.92;;